Terminal Aerodrome Forecast
Issued by NWS Twin Cities, MN

Home | Current Version | Previous Version | Text Only | Print | Product List | Glossary On
Versions: 1 2 3 4 5 6 7 8 9 10 11 12 13 14 15 16
000
FTUS43 KMPX 311134
TAFSTC
TAF
KSTC 311134Z 3112/0112 14010KT P6SM -SHRA OVC100
     FM311500 20009KT P6SM SCT025 OVC040
     FM311900 22009KT P6SM SCT050
     FM010200 22008KT P6SM SKC=

USA.gov is the U.S. government's official web portal to all federal, state and local government web resources and services.